createdAt,value
2018-11-12T00:00:41.288Z,24.97
2018-11-12T00:01:40.457Z,25.00
2018-11-12T00:02:40.858Z,25.10
2018-11-12T00:03:40.485Z,25.09
2018-11-12T00:04:40.401Z,25.01
2018-11-12T00:05:40.474Z,25.02
2018-11-12T00:06:40.999Z,25.09
2018-11-12T00:07:40.381Z,25.06
2018-11-12T00:08:40.712Z,25.07
2018-11-12T00:09:40.741Z,25.10
2018-11-12T00:10:40.618Z,25.07
2018-11-12T00:11:40.371Z,25.07
2018-11-12T00:12:40.434Z,25.06
2018-11-12T00:13:40.723Z,25.12
2018-11-12T00:14:40.411Z,25.10
2018-11-12T00:15:41.158Z,25.05
2018-11-12T00:16:40.357Z,25.07
2018-11-12T00:17:40.703Z,25.07
2018-11-12T00:18:40.350Z,25.10
2018-11-12T00:19:40.412Z,25.02
2018-11-12T00:20:40.369Z,25.13
2018-11-12T00:21:40.330Z,25.07
2018-11-12T00:22:40.321Z,25.05
2018-11-12T00:28:38.028Z,24.98
2018-11-12T00:29:16.720Z,25.10
2018-11-12T00:32:10.100Z,25.02
2018-11-12T00:34:03.492Z,25.09
2018-11-12T00:35:03.794Z,25.12
2018-11-12T00:36:57.523Z,25.15
2018-11-12T00:37:56.955Z,25.16
2018-11-12T00:41:48.953Z,25.15
2018-11-12T00:45:43.100Z,25.16
2018-11-12T00:46:08.487Z,25.16
2018-11-12T00:49:34.149Z,25.16
2018-11-12T00:50:34.136Z,25.16
2018-11-12T00:52:53.926Z,25.30
2018-11-12T00:53:27.949Z,25.30
2018-11-12T00:56:52.530Z,25.30
2018-11-12T00:57:52.497Z,25.27
2018-11-12T01:01:38.448Z,25.27
2018-11-12T01:02:18.037Z,25.25
2018-11-12T01:04:32.482Z,25.34
2018-11-12T01:05:10.780Z,25.31
2018-11-12T01:07:25.231Z,25.25
2018-11-12T01:08:04.218Z,25.42
2018-11-12T01:13:36.346Z,25.38
2018-11-12T01:14:01.793Z,25.38
2018-11-12T01:19:19.909Z,25.43
2018-11-12T01:19:58.839Z,25.49
2018-11-12T01:21:52.765Z,25.47
2018-11-12T01:24:06.980Z,25.53
2018-11-12T01:28:10.395Z,25.46
2018-11-12T01:29:10.806Z,25.46
2018-11-12T01:31:18.530Z,25.44
2018-11-12T01:32:03.749Z,25.57
2018-11-12T01:33:56.893Z,25.50
2018-11-12T01:36:50.773Z,25.56
2018-11-12T01:37:50.707Z,25.49
2018-11-12T01:44:46.323Z,25.47
2018-11-12T01:45:20.866Z,25.54
2018-11-12T01:47:34.057Z,25.49
2018-11-12T01:48:13.510Z,25.54
2018-11-12T01:49:16.158Z,25.47
2018-11-12T01:50:12.584Z,25.50
2018-11-12T01:51:17.012Z,25.59
2018-11-12T01:52:12.672Z,25.50
2018-11-12T01:53:12.635Z,25.54
2018-11-12T01:54:12.593Z,25.53
2018-11-12T01:55:16.172Z,25.52
2018-11-12T01:56:12.534Z,25.56
2018-11-12T01:57:12.875Z,25.47
2018-11-12T01:58:12.528Z,25.56
2018-11-12T01:59:12.550Z,25.56
2018-11-12T02:00:12.879Z,25.53
2018-11-12T02:01:13.169Z,25.46
2018-11-12T02:02:12.493Z,25.52
2018-11-12T02:03:12.521Z,25.52
2018-11-12T02:04:16.664Z,25.49
2018-11-12T02:05:16.246Z,25.53
2018-11-12T02:06:14.469Z,25.47
2018-11-12T02:07:12.459Z,25.47
2018-11-12T02:08:18.186Z,25.50
2018-11-12T02:09:12.455Z,25.54
2018-11-12T02:10:13.168Z,25.52
2018-11-12T02:11:13.183Z,25.61
2018-11-12T02:12:13.324Z,25.54
2018-11-12T02:13:12.421Z,25.54
2018-11-12T02:14:13.191Z,25.59
2018-11-12T02:15:12.437Z,25.61
2018-11-12T02:16:12.392Z,25.57
2018-11-12T02:17:12.387Z,25.57
2018-11-12T02:18:12.383Z,25.54
2018-11-12T02:19:12.408Z,25.47
2018-11-12T02:20:12.699Z,25.44
2018-11-12T02:21:12.360Z,25.53
2018-11-12T02:22:12.371Z,25.42
2018-11-12T02:23:12.385Z,25.47
2018-11-12T02:24:12.348Z,25.46
2018-11-12T02:25:12.377Z,25.46
2018-11-12T02:26:12.393Z,25.50
2018-11-12T02:27:13.484Z,25.46
2018-11-12T02:28:12.350Z,25.47
2018-11-12T02:29:18.162Z,25.52
2018-11-12T02:30:12.362Z,25.44
2018-11-12T02:32:12.911Z,25.47
2018-11-12T02:41:44.930Z,25.61
2018-11-12T02:42:47.799Z,25.64
2018-11-12T02:46:25.186Z,25.59
2018-11-12T02:47:10.688Z,25.61
2018-11-12T02:49:39.758Z,25.68
2018-11-12T02:50:03.455Z,25.65
2018-11-12T02:51:03.093Z,25.67
2018-11-12T02:52:03.122Z,25.65
2018-11-12T02:53:03.141Z,25.71
2018-11-12T02:54:03.146Z,25.64
2018-11-12T02:55:03.425Z,25.62
2018-11-12T02:56:03.054Z,25.64
2018-11-12T02:57:03.063Z,25.64
2018-11-12T02:58:03.400Z,25.65
2018-11-12T02:59:03.064Z,25.68
2018-11-12T03:00:03.067Z,25.68
2018-11-12T03:01:03.134Z,25.65
2018-11-12T03:02:03.019Z,25.68
2018-11-12T03:03:03.112Z,25.64
2018-11-12T03:04:03.361Z,25.65
2018-11-12T03:05:03.001Z,25.64
2018-11-12T03:06:03.362Z,25.64
2018-11-12T03:07:02.976Z,25.69
2018-11-12T03:08:03.018Z,25.69
2018-11-12T03:09:03.310Z,25.64
2018-11-12T03:10:02.960Z,25.64
2018-11-12T03:11:02.951Z,25.62
2018-11-12T03:12:02.992Z,25.68
2018-11-12T03:13:02.939Z,25.64
2018-11-12T03:14:03.275Z,25.75
2018-11-12T03:15:03.270Z,25.68
2018-11-12T03:16:02.933Z,25.69
2018-11-12T03:17:03.021Z,25.74
2018-11-12T03:18:03.254Z,25.64
2018-11-12T03:19:02.900Z,25.75
2018-11-12T03:20:02.885Z,25.75
2018-11-12T03:21:02.940Z,25.72
2018-11-12T03:22:02.899Z,25.75
2018-11-12T03:23:03.221Z,25.72
2018-11-12T03:24:02.903Z,25.75
2018-11-12T03:25:02.851Z,25.65
2018-11-12T03:26:03.237Z,25.68
2018-11-12T03:27:02.874Z,25.72
2018-11-12T03:28:03.173Z,25.74
2018-11-12T03:29:02.907Z,25.71
2018-11-12T03:30:02.868Z,25.69
2018-11-12T03:31:02.916Z,25.82
2018-11-12T03:32:03.718Z,25.75
2018-11-12T03:33:02.899Z,25.67
2018-11-12T03:34:02.836Z,25.65
2018-11-12T03:35:02.833Z,25.69
2018-11-12T03:36:02.806Z,25.71
2018-11-12T03:37:02.816Z,25.69
2018-11-12T03:38:02.779Z,25.75
2018-11-12T03:39:02.761Z,25.69
2018-11-12T03:40:02.801Z,25.79
2018-11-12T03:41:02.794Z,25.77
2018-11-12T03:42:03.116Z,25.71
2018-11-12T03:43:02.791Z,25.71
2018-11-12T03:44:02.872Z,25.68
2018-11-12T03:45:03.102Z,25.79
2018-11-12T03:46:02.720Z,25.75
2018-11-12T03:47:02.783Z,25.77
2018-11-12T03:48:03.052Z,25.75
2018-11-12T03:49:02.704Z,25.77
2018-11-12T03:50:02.811Z,25.77
2018-11-12T03:51:02.722Z,25.74
2018-11-12T03:52:02.780Z,25.83
2018-11-12T03:53:02.671Z,25.75
2018-11-12T03:54:02.722Z,25.84
2018-11-12T03:55:03.002Z,25.83
2018-11-12T03:56:03.012Z,25.89
2018-11-12T03:57:02.723Z,25.91
2018-11-12T03:58:02.640Z,25.86
2018-11-12T03:59:03.000Z,25.84
2018-11-12T04:00:02.679Z,25.87
2018-11-12T04:01:02.971Z,25.94
2018-11-12T04:02:02.611Z,25.93
2018-11-12T04:03:02.609Z,25.94
2018-11-12T04:04:03.276Z,25.93
2018-11-12T04:05:02.999Z,25.94
2018-11-12T04:06:03.007Z,25.93
2018-11-12T04:07:02.580Z,25.97
2018-11-12T04:08:02.634Z,25.97
2018-11-12T04:09:02.561Z,25.98
2018-11-12T04:10:02.930Z,25.97
2018-11-12T04:11:02.625Z,25.93
2018-11-12T04:12:02.577Z,25.94
2018-11-12T04:13:02.540Z,25.94
2018-11-12T04:14:02.533Z,26.02
2018-11-12T04:15:02.568Z,25.97
2018-11-12T04:16:02.561Z,25.94
2018-11-12T04:17:02.512Z,25.98
2018-11-12T04:18:02.563Z,25.94
2018-11-12T04:19:02.537Z,25.90
2018-11-12T04:20:02.872Z,25.98
2018-11-12T04:21:02.816Z,25.94
2018-11-12T04:22:02.525Z,25.94
2018-11-12T04:24:34.756Z,26.02
2018-11-12T04:25:37.243Z,25.99
2018-11-12T04:29:00.716Z,25.97
2018-11-12T04:30:01.259Z,25.97
2018-11-12T04:34:30.027Z,25.94
2018-11-12T04:36:24.793Z,25.98
2018-11-12T04:37:24.722Z,25.98
2018-11-12T04:42:53.433Z,25.94
2018-11-12T04:43:21.803Z,25.94
2018-11-12T04:45:50.952Z,25.98
2018-11-12T04:46:15.610Z,25.97
2018-11-12T04:54:27.653Z,25.91
2018-11-12T04:55:26.907Z,25.93
2018-11-12T04:57:21.458Z,25.93
2018-11-12T04:58:21.188Z,25.94
2018-11-12T05:03:18.972Z,25.84
2018-11-12T05:04:19.508Z,25.93
2018-11-12T05:06:16.429Z,25.82
2018-11-12T05:07:13.578Z,25.91
2018-11-12T05:09:07.566Z,25.87
2018-11-12T05:10:07.375Z,25.86
2018-11-12T05:13:32.877Z,25.87
2018-11-12T05:14:34.393Z,25.83
2018-11-12T05:17:58.685Z,25.82
2018-11-12T05:18:58.256Z,25.86
2018-11-12T05:19:58.597Z,25.89
2018-11-12T05:20:58.330Z,25.80
2018-11-12T05:21:58.786Z,25.86
2018-11-12T05:22:58.232Z,25.87
2018-11-12T05:23:58.195Z,25.86
2018-11-12T05:24:58.246Z,25.83
2018-11-12T05:25:58.196Z,25.84
2018-11-12T05:26:58.195Z,25.84
2018-11-12T05:27:58.195Z,25.82
2018-11-12T05:28:58.515Z,25.86
2018-11-12T05:29:58.504Z,25.79
2018-11-12T05:30:58.201Z,25.86
2018-11-12T05:31:58.206Z,25.86
2018-11-12T05:32:58.474Z,25.84
2018-11-12T05:33:58.181Z,25.86
2018-11-12T05:34:58.167Z,25.82
2018-11-12T05:35:58.166Z,25.87
2018-11-12T05:36:58.151Z,25.87
2018-11-12T05:37:58.141Z,25.87
2018-11-12T05:38:58.111Z,25.89
2018-11-12T05:39:58.515Z,25.86
2018-11-12T05:40:58.128Z,25.79
2018-11-12T05:41:58.470Z,25.86
2018-11-12T05:42:58.112Z,25.86
2018-11-12T05:43:58.088Z,25.80
2018-11-12T05:44:58.211Z,25.83
2018-11-12T05:45:58.161Z,25.84
2018-11-12T05:46:59.447Z,25.87
2018-11-12T05:47:58.422Z,25.86
2018-11-12T05:48:58.098Z,25.87
2018-11-12T05:49:58.069Z,25.87
2018-11-12T05:50:58.043Z,25.91
2018-11-12T05:51:58.066Z,25.84
2018-11-12T05:52:58.121Z,25.89
2018-11-12T05:53:58.020Z,25.89
2018-11-12T05:54:58.033Z,25.80
2018-11-12T05:55:58.341Z,25.89
2018-11-12T05:56:58.023Z,25.86
2018-11-12T05:57:58.354Z,25.80
2018-11-12T05:58:58.017Z,25.87
2018-11-12T05:59:57.972Z,25.87
2018-11-12T06:00:58.342Z,25.83
2018-11-12T06:01:58.283Z,25.82
2018-11-12T06:02:57.980Z,25.86
2018-11-12T06:03:57.945Z,25.79
2018-11-12T06:04:57.986Z,25.82
2018-11-12T06:05:57.961Z,25.84
2018-11-12T06:06:57.964Z,25.86
2018-11-12T06:07:59.212Z,25.83
2018-11-12T06:08:58.252Z,25.82
2018-11-12T06:09:58.409Z,25.86
2018-11-12T06:10:58.341Z,25.84
2018-11-12T06:11:58.864Z,25.86
2018-11-12T06:12:57.901Z,25.83
2018-11-12T06:13:57.868Z,25.84
2018-11-12T06:14:57.896Z,25.87
2018-11-12T06:15:57.873Z,25.89
2018-11-12T06:16:57.862Z,25.80
2018-11-12T06:17:57.872Z,25.86
2018-11-12T06:18:57.845Z,25.83
2018-11-12T06:19:58.186Z,25.89
2018-11-12T06:20:57.861Z,25.82
2018-11-12T06:21:57.864Z,25.80
2018-11-12T06:22:57.816Z,25.83
2018-11-12T06:23:57.977Z,25.82
2018-11-12T06:26:32.837Z,25.84
2018-11-12T06:27:30.780Z,25.82
2018-11-12T06:35:36.317Z,25.84
2018-11-12T06:36:35.380Z,25.84
2018-11-12T06:38:28.734Z,25.87
2018-11-12T06:39:29.307Z,25.87
2018-11-12T06:41:47.982Z,25.86
2018-11-12T06:42:21.896Z,25.84
2018-11-12T06:45:47.971Z,25.84
2018-11-12T06:48:02.534Z,25.86
2018-11-12T06:49:00.981Z,25.89
2018-11-12T06:53:59.069Z,25.86
2018-11-12T06:54:58.738Z,25.83
2018-11-12T06:58:26.366Z,25.90
2018-11-12T07:05:54.572Z,25.83
2018-11-12T07:06:54.994Z,25.79
2018-11-12T07:08:48.228Z,25.87
2018-11-12T07:09:47.914Z,25.84
2018-11-12T07:16:23.271Z,25.98
2018-11-12T07:17:19.742Z,25.94
2018-11-12T07:19:35.180Z,26.04
2018-11-12T07:20:13.280Z,26.02
2018-11-12T07:25:11.300Z,26.09
2018-11-12T07:26:11.516Z,26.12
2018-11-12T07:29:40.748Z,26.02
2018-11-12T07:30:37.598Z,26.12
2018-11-12T07:32:31.591Z,26.11
2018-11-12T07:33:31.092Z,26.09
2018-11-12T07:35:44.919Z,26.11
2018-11-12T07:37:57.463Z,26.11
2018-11-12T07:38:38.037Z,26.11
2018-11-12T07:42:03.836Z,26.24
2018-11-12T07:43:03.393Z,26.21
2018-11-12T07:46:29.751Z,26.20
2018-11-12T07:47:29.202Z,26.28
2018-11-12T07:51:00.887Z,26.25
2018-11-12T07:51:55.148Z,26.27
2018-11-12T07:52:55.140Z,26.24
2018-11-12T07:53:55.138Z,26.31
2018-11-12T07:54:55.737Z,26.22
2018-11-12T07:55:55.459Z,26.29
2018-11-12T07:56:56.860Z,26.25
2018-11-12T07:58:55.108Z,26.21
2018-11-12T07:59:55.102Z,26.20
2018-11-12T08:00:55.057Z,26.18
2018-11-12T08:01:55.906Z,26.15
2018-11-12T08:02:55.119Z,26.20
2018-11-12T08:03:55.083Z,26.17
2018-11-12T08:04:55.029Z,26.20
2018-11-12T08:05:55.378Z,26.18
2018-11-12T08:06:59.292Z,26.11
2018-11-12T08:07:55.960Z,26.09
2018-11-12T08:08:55.156Z,26.11
2018-11-12T08:09:55.060Z,26.17
2018-11-12T08:10:55.923Z,26.08
2018-11-12T08:11:55.033Z,26.06
2018-11-12T08:13:56.944Z,26.02
2018-11-12T08:14:55.068Z,26.04
2018-11-12T08:16:14.932Z,26.05
2018-11-12T08:16:55.076Z,26.01
2018-11-12T08:17:54.983Z,26.04
2018-11-12T08:18:55.278Z,26.05
2018-11-12T08:19:55.289Z,26.04
2018-11-12T08:21:02.237Z,26.11
2018-11-12T08:22:16.958Z,26.04
2018-11-12T08:22:56.093Z,26.09
2018-11-12T08:24:58.290Z,26.02
2018-11-12T08:26:03.419Z,26.04
2018-11-12T08:28:00.494Z,26.06
2018-11-12T08:28:55.579Z,26.02
2018-11-12T08:29:55.312Z,26.06
2018-11-12T08:30:55.529Z,26.06
2018-11-12T08:31:57.501Z,26.05
2018-11-12T08:32:55.508Z,26.02
2018-11-12T08:33:55.873Z,26.04
2018-11-12T08:39:32.237Z,25.94
2018-11-12T08:40:32.190Z,26.02
2018-11-12T08:42:25.216Z,26.08
2018-11-12T08:43:25.566Z,26.02
2018-11-12T08:45:18.455Z,26.05
2018-11-12T08:58:45.402Z,26.04
2018-11-12T08:59:16.021Z,25.98
2018-11-12T09:05:45.538Z,26.01
2018-11-12T09:06:45.527Z,25.94
2018-11-12T09:08:51.473Z,25.94
2018-11-12T09:09:39.765Z,26.02
2018-11-12T09:11:44.800Z,25.91
2018-11-12T09:12:33.155Z,25.98
2018-11-12T09:15:56.714Z,26.06
2018-11-12T09:16:57.090Z,26.04
2018-11-12T09:24:59.165Z,26.06
2018-11-12T09:25:58.531Z,26.08
2018-11-12T09:44:48.869Z,26.04
2018-11-12T09:45:48.552Z,26.01
2018-11-12T09:47:42.754Z,25.98
2018-11-12T09:48:42.118Z,25.94
2018-11-12T09:52:07.929Z,25.94
2018-11-12T09:53:07.902Z,25.97
2018-11-12T10:16:35.822Z,25.97
2018-11-12T10:17:34.681Z,25.91
2018-11-12T10:22:30.554Z,25.94
2018-11-12T10:23:30.650Z,25.97
2018-11-12T10:31:39.332Z,25.99
2018-11-12T10:32:33.663Z,25.97
2018-11-12T10:34:38.118Z,25.97
2018-11-12T10:35:26.763Z,25.98
2018-11-12T10:37:19.636Z,25.98
2018-11-12T10:38:19.706Z,25.97
2018-11-12T10:46:15.744Z,25.87
2018-11-12T10:47:15.437Z,25.94
2018-11-12T10:49:28.828Z,25.99
2018-11-12T10:50:07.748Z,25.93
2018-11-12T10:57:33.371Z,25.99
2018-11-12T11:00:55.993Z,25.98
2018-11-12T11:02:00.143Z,25.93
2018-11-12T11:06:50.943Z,25.94
2018-11-12T11:07:50.264Z,25.91
2018-11-12T11:09:43.111Z,25.97
2018-11-12T11:10:46.492Z,25.97
2018-11-12T11:14:06.020Z,25.89
2018-11-12T11:15:06.343Z,25.91
2018-11-12T11:18:29.407Z,25.98
2018-11-12T11:19:29.406Z,25.97
2018-11-12T11:21:21.831Z,25.98
2018-11-12T11:22:22.084Z,25.98
2018-11-12T11:25:45.196Z,25.97
2018-11-12T11:26:45.274Z,25.86
2018-11-12T11:40:45.969Z,25.98
2018-11-12T11:41:45.899Z,25.91
2018-11-12T11:43:38.547Z,25.94
2018-11-12T11:44:38.226Z,25.91
2018-11-12T11:48:01.648Z,25.99
2018-11-12T11:49:01.661Z,25.94
2018-11-12T11:56:58.376Z,25.94
2018-11-12T11:57:58.085Z,25.94
2018-11-12T12:16:43.000Z,25.67
2018-11-12T12:17:42.949Z,25.72
2018-11-12T12:19:36.868Z,25.64
2018-11-12T12:20:36.333Z,25.65
2018-11-12T12:28:36.936Z,25.67
2018-11-12T12:29:36.889Z,25.69
2018-11-12T12:34:33.363Z,25.65
2018-11-12T12:35:33.724Z,25.71
2018-11-12T12:42:04.626Z,25.67
2018-11-12T12:43:04.591Z,25.65
2018-11-12T13:32:27.161Z,25.61
2018-11-12T13:33:27.188Z,25.69
2018-11-12T13:41:28.802Z,25.67
2018-11-12T13:42:28.783Z,25.68
2018-11-12T13:48:56.757Z,25.65
2018-11-12T13:49:56.672Z,25.67
2018-11-12T13:56:25.600Z,25.68
2018-11-12T13:57:25.202Z,25.68
2018-11-12T13:59:18.222Z,25.64
2018-11-12T14:00:17.961Z,25.67
2018-11-12T14:06:46.491Z,25.68
2018-11-12T14:07:46.755Z,25.67
2018-11-12T14:37:17.229Z,25.72
2018-11-12T14:38:17.214Z,25.64
2018-11-12T14:55:33.116Z,25.62
2018-11-12T14:56:33.146Z,25.64
2018-11-12T15:09:13.335Z,25.62
2018-11-12T15:10:12.768Z,25.54
2018-11-12T15:19:46.402Z,25.61
2018-11-12T15:20:46.191Z,25.59
2018-11-12T15:31:52.137Z,25.65
2018-11-12T15:32:52.453Z,25.56
2018-11-12T15:34:45.718Z,25.57
2018-11-12T15:35:45.702Z,25.57
2018-11-12T15:43:48.867Z,25.62
2018-11-12T15:44:49.218Z,25.61
2018-11-12T16:00:30.357Z,25.57
2018-11-12T16:01:30.350Z,25.57
2018-11-12T16:06:27.772Z,25.59
2018-11-12T16:07:27.342Z,25.56
2018-11-12T16:29:19.004Z,25.57
2018-11-12T16:30:18.687Z,25.62
2018-11-12T16:35:16.662Z,25.57
2018-11-12T16:36:16.631Z,25.59
2018-11-12T16:41:17.708Z,25.59
2018-11-12T16:42:13.839Z,25.62
2018-11-12T16:45:39.621Z,25.61
2018-11-12T16:46:39.253Z,25.54
2018-11-12T16:50:04.405Z,25.59
2018-11-12T16:51:04.502Z,25.56
2018-11-12T17:03:43.127Z,25.54
2018-11-12T17:04:43.084Z,25.59
2018-11-12T17:35:46.576Z,25.57
2018-11-12T17:36:46.567Z,25.49
2018-11-12T17:40:12.285Z,25.53
2018-11-12T17:41:12.032Z,25.49
2018-11-12T17:53:50.063Z,25.57
2018-11-12T17:54:50.085Z,25.57
2018-11-12T17:58:14.563Z,25.62
2018-11-12T17:59:14.217Z,25.49
2018-11-12T18:21:05.894Z,25.49
2018-11-12T18:22:05.918Z,25.50
2018-11-12T18:42:26.133Z,25.50
2018-11-12T18:43:26.141Z,25.53
2018-11-12T18:53:00.376Z,25.46
2018-11-12T18:54:00.368Z,25.54
2018-11-12T19:18:54.978Z,25.52
2018-11-12T19:19:54.632Z,25.53
2018-11-12T19:24:52.415Z,25.61
2018-11-12T19:25:52.361Z,25.49
2018-11-12T19:35:26.095Z,25.56
2018-11-12T19:36:26.051Z,25.53
2018-11-12T20:05:55.786Z,25.53
2018-11-12T20:06:55.840Z,25.54
2018-11-12T20:21:04.659Z,25.57
2018-11-12T20:22:04.103Z,25.54
2018-11-12T20:48:39.944Z,25.50
2018-11-12T20:49:39.936Z,25.47
2018-11-12T21:13:01.848Z,25.52
2018-11-12T21:14:01.870Z,25.50
2018-11-12T21:23:34.833Z,25.50
2018-11-12T21:24:34.797Z,25.43
2018-11-12T22:01:42.676Z,25.47
2018-11-12T22:02:42.297Z,25.50
2018-11-12T22:16:51.519Z,25.50
2018-11-12T22:17:51.469Z,25.47
2018-11-12T22:19:44.958Z,25.52
2018-11-12T22:20:45.177Z,25.39
2018-11-12T22:31:50.544Z,25.43
2018-11-12T22:32:50.854Z,25.50
2018-11-12T22:47:00.612Z,25.46
2018-11-12T22:48:00.954Z,25.47
2018-11-12T22:52:58.591Z,25.47
2018-11-12T22:53:58.656Z,25.52
2018-11-12T22:58:56.174Z,25.49
2018-11-12T22:59:56.445Z,25.52
2018-11-12T23:06:26.482Z,25.50
2018-11-12T23:07:26.514Z,25.47
2018-11-12T23:09:19.393Z,25.50
2018-11-12T23:10:18.786Z,25.50
2018-11-12T23:16:48.883Z,25.47
2018-11-12T23:17:48.882Z,25.47
2018-11-12T23:24:18.604Z,25.50
2018-11-12T23:25:18.703Z,25.53
2018-11-12T23:30:15.975Z,25.53
2018-11-12T23:31:15.606Z,25.54
2018-11-12T23:36:12.285Z,25.59
2018-11-12T23:37:12.287Z,25.59
2018-11-12T23:52:53.123Z,25.69
2018-11-12T23:53:53.193Z,25.64
2018-11-12T23:55:46.924Z,25.65
2018-11-12T23:56:46.724Z,25.64
